sensor_id;sensor_type;location;lat;lon;timestamp;pressure;altitude;pressure_sealevel;temperature;humidity
43488;BME280;29078;41.932;25.554;2023-04-27T00:01:11;98990.56;;;13.28;59.87
43488;BME280;29078;41.932;25.554;2023-04-27T00:03:37;98953.31;;;12.97;59.89
43488;BME280;29078;41.932;25.554;2023-04-27T00:06:03;98980.78;;;13.22;60.05
43488;BME280;29078;41.932;25.554;2023-04-27T00:08:28;98953.50;;;13.02;60.32
43488;BME280;29078;41.932;25.554;2023-04-27T00:10:55;98908.34;;;12.64;60.22
43488;BME280;29078;41.932;25.554;2023-04-27T00:13:20;98882.88;;;12.43;60.33
43488;BME280;29078;41.932;25.554;2023-04-27T00:15:46;98895.09;;;12.51;60.54
43488;BME280;29078;41.932;25.554;2023-04-27T00:18:11;99001.38;;;13.14;60.99
43488;BME280;29078;41.932;25.554;2023-04-27T00:20:36;98937.44;;;12.57;60.80
43488;BME280;29078;41.932;25.554;2023-04-27T00:23:02;99010.56;;;12.98;61.04
43488;BME280;29078;41.932;25.554;2023-04-27T00:25:28;98931.75;;;12.40;61.56
43488;BME280;29078;41.932;25.554;2023-04-27T00:27:53;99013.03;;;12.86;61.95
43488;BME280;29078;41.932;25.554;2023-04-27T00:30:19;98948.25;;;12.43;61.85
43488;BME280;29078;41.932;25.554;2023-04-27T00:32:44;99025.47;;;12.79;62.11
43488;BME280;29078;41.932;25.554;2023-04-27T00:35:10;99020.78;;;12.75;62.43
43488;BME280;29078;41.932;25.554;2023-04-27T00:37:35;98953.97;;;12.33;62.66
43488;BME280;29078;41.932;25.554;2023-04-27T00:40:03;99027.91;;;12.81;62.72
43488;BME280;29078;41.932;25.554;2023-04-27T00:42:29;99047.69;;;12.78;63.04
43488;BME280;29078;41.932;25.554;2023-04-27T00:44:56;99030.97;;;12.71;63.19
43488;BME280;29078;41.932;25.554;2023-04-27T00:47:21;98969.63;;;12.28;63.15
43488;BME280;29078;41.932;25.554;2023-04-27T00:49:47;99036.44;;;12.63;62.89
43488;BME280;29078;41.932;25.554;2023-04-27T00:52:13;99001.19;;;12.36;62.92
43488;BME280;29078;41.932;25.554;2023-04-27T00:54:39;98998.34;;;12.31;63.33
43488;BME280;29078;41.932;25.554;2023-04-27T00:57:04;99049.94;;;12.68;63.50
43488;BME280;29078;41.932;25.554;2023-04-27T00:59:30;98950.06;;;12.02;63.93
43488;BME280;29078;41.932;25.554;2023-04-27T01:01:56;99066.84;;;12.67;63.68
43488;BME280;29078;41.932;25.554;2023-04-27T01:04:22;98973.09;;;12.15;63.74
43488;BME280;29078;41.932;25.554;2023-04-27T01:06:47;99025.25;;;12.41;63.99
43488;BME280;29078;41.932;25.554;2023-04-27T01:09:13;99017.91;;;12.36;64.18
43488;BME280;29078;41.932;25.554;2023-04-27T01:11:38;99060.72;;;12.66;64.42
43488;BME280;29078;41.932;25.554;2023-04-27T01:14:05;99071.72;;;12.70;64.11
43488;BME280;29078;41.932;25.554;2023-04-27T01:16:34;99013.00;;;12.27;64.12
43488;BME280;29078;41.932;25.554;2023-04-27T01:18:59;99079.47;;;12.65;64.49
43488;BME280;29078;41.932;25.554;2023-04-27T01:21:25;99082.50;;;12.62;64.49
43488;BME280;29078;41.932;25.554;2023-04-27T01:23:51;98996.91;;;12.08;64.53
43488;BME280;29078;41.932;25.554;2023-04-27T01:26:17;99021.56;;;12.29;64.77
43488;BME280;29078;41.932;25.554;2023-04-27T01:28:42;99017.47;;;12.20;64.77
43488;BME280;29078;41.932;25.554;2023-04-27T01:31:09;99068.00;;;12.45;64.72
43488;BME280;29078;41.932;25.554;2023-04-27T01:33:35;99087.97;;;12.54;64.46
43488;BME280;29078;41.932;25.554;2023-04-27T01:36:01;99111.44;;;12.63;65.04
43488;BME280;29078;41.932;25.554;2023-04-27T01:38:26;99038.66;;;12.20;65.26
43488;BME280;29078;41.932;25.554;2023-04-27T01:40:52;99065.53;;;12.23;65.08
43488;BME280;29078;41.932;25.554;2023-04-27T01:43:19;99111.66;;;12.68;64.80
43488;BME280;29078;41.932;25.554;2023-04-27T01:45:45;99037.63;;;12.21;64.88
43488;BME280;29078;41.932;25.554;2023-04-27T01:48:10;99081.63;;;12.35;65.21
43488;BME280;29078;41.932;25.554;2023-04-27T01:50:36;99047.59;;;12.12;65.24
43488;BME280;29078;41.932;25.554;2023-04-27T01:53:01;99092.22;;;12.35;65.21
43488;BME280;29078;41.932;25.554;2023-04-27T01:55:27;99122.22;;;12.62;65.42
43488;BME280;29078;41.932;25.554;2023-04-27T01:57:53;99037.19;;;12.11;65.35
43488;BME280;29078;41.932;25.554;2023-04-27T02:00:18;99047.19;;;12.15;65.60
43488;BME280;29078;41.932;25.554;2023-04-27T02:02:44;99115.09;;;12.62;66.03
43488;BME280;29078;41.932;25.554;2023-04-27T02:05:09;99136.13;;;12.70;65.65
43488;BME280;29078;41.932;25.554;2023-04-27T02:07:34;99061.47;;;12.27;65.74
43488;BME280;29078;41.932;25.554;2023-04-27T02:10:00;99078.97;;;12.28;65.51
43488;BME280;29078;41.932;25.554;2023-04-27T02:12:25;99130.97;;;12.62;65.93
43488;BME280;29078;41.932;25.554;2023-04-27T02:14:51;99137.53;;;12.66;65.43
43488;BME280;29078;41.932;25.554;2023-04-27T02:17:16;99077.13;;;12.22;65.55
43488;BME280;29078;41.932;25.554;2023-04-27T02:19:41;99123.22;;;12.48;65.53
43488;BME280;29078;41.932;25.554;2023-04-27T02:22:07;99083.84;;;12.25;65.87
43488;BME280;29078;41.932;25.554;2023-04-27T02:24:34;99149.75;;;12.67;65.57
43488;BME280;29078;41.932;25.554;2023-04-27T02:26:59;99148.75;;;12.68;65.49
43488;BME280;29078;41.932;25.554;2023-04-27T02:29:29;99145.69;;;12.65;65.15
43488;BME280;29078;41.932;25.554;2023-04-27T02:31:54;99072.44;;;12.18;65.28
43488;BME280;29078;41.932;25.554;2023-04-27T02:34:20;99154.00;;;12.62;65.51
43488;BME280;29078;41.932;25.554;2023-04-27T02:36:45;99160.31;;;12.61;65.77
43488;BME280;29078;41.932;25.554;2023-04-27T02:39:10;99104.00;;;12.26;65.96
43488;BME280;29078;41.932;25.554;2023-04-27T02:41:36;99121.97;;;12.37;65.83
43488;BME280;29078;41.932;25.554;2023-04-27T02:44:02;99092.78;;;12.17;66.02
43488;BME280;29078;41.932;25.554;2023-04-27T02:46:27;99168.47;;;12.59;65.64
43488;BME280;29078;41.932;25.554;2023-04-27T02:48:53;99108.47;;;12.19;65.70
43488;BME280;29078;41.932;25.554;2023-04-27T02:51:19;99103.38;;;12.17;65.77
43488;BME280;29078;41.932;25.554;2023-04-27T02:53:44;99191.53;;;12.65;65.91
43488;BME280;29078;41.932;25.554;2023-04-27T02:56:10;99160.09;;;12.56;66.08
43488;BME280;29078;41.932;25.554;2023-04-27T02:58:35;99165.59;;;12.54;66.47
43488;BME280;29078;41.932;25.554;2023-04-27T03:01:01;99037.06;;;11.77;66.28
43488;BME280;29078;41.932;25.554;2023-04-27T03:03:26;99179.72;;;12.68;66.54
43488;BME280;29078;41.932;25.554;2023-04-27T03:05:52;99127.22;;;12.24;65.70
43488;BME280;29078;41.932;25.554;2023-04-27T03:08:17;99189.25;;;12.62;66.03
43488;BME280;29078;41.932;25.554;2023-04-27T03:10:42;99182.72;;;12.58;65.45
43488;BME280;29078;41.932;25.554;2023-04-27T03:13:08;99147.59;;;12.23;65.78
43488;BME280;29078;41.932;25.554;2023-04-27T03:15:33;99209.06;;;12.66;65.83
43488;BME280;29078;41.932;25.554;2023-04-27T03:17:59;99131.44;;;12.12;66.10
43488;BME280;29078;41.932;25.554;2023-04-27T03:20:24;99201.09;;;12.66;66.14
43488;BME280;29078;41.932;25.554;2023-04-27T03:22:50;99170.44;;;12.37;66.29
43488;BME280;29078;41.932;25.554;2023-04-27T03:25:16;99160.00;;;12.23;65.91
43488;BME280;29078;41.932;25.554;2023-04-27T03:27:41;99208.59;;;12.56;65.82
43488;BME280;29078;41.932;25.554;2023-04-27T03:30:08;99216.09;;;12.53;66.17
43488;BME280;29078;41.932;25.554;2023-04-27T03:32:33;99156.69;;;12.07;65.96
43488;BME280;29078;41.932;25.554;2023-04-27T03:34:59;99217.53;;;12.49;65.72
43488;BME280;29078;41.932;25.554;2023-04-27T03:37:25;99221.81;;;12.50;65.75
43488;BME280;29078;41.932;25.554;2023-04-27T03:39:51;99225.25;;;12.50;66.15
43488;BME280;29078;41.932;25.554;2023-04-27T03:42:17;99220.56;;;12.46;66.26
43488;BME280;29078;41.932;25.554;2023-04-27T03:44:42;99220.31;;;12.34;65.87
43488;BME280;29078;41.932;25.554;2023-04-27T03:47:07;99193.78;;;12.21;65.93
43488;BME280;29078;41.932;25.554;2023-04-27T03:49:36;99181.72;;;12.12;66.38
43488;BME280;29078;41.932;25.554;2023-04-27T03:52:02;99240.13;;;12.51;66.34
43488;BME280;29078;41.932;25.554;2023-04-27T03:54:27;99225.84;;;12.39;66.34
43488;BME280;29078;41.932;25.554;2023-04-27T03:56:53;99181.34;;;12.15;66.67
43488;BME280;29078;41.932;25.554;2023-04-27T03:59:18;99252.38;;;12.59;66.43
43488;BME280;29078;41.932;25.554;2023-04-27T04:01:44;99192.78;;;12.22;66.52
43488;BME280;29078;41.932;25.554;2023-04-27T04:04:09;99164.22;;;12.11;66.27
43488;BME280;29078;41.932;25.554;2023-04-27T04:06:35;99253.81;;;12.61;66.19
43488;BME280;29078;41.932;25.554;2023-04-27T04:09:00;99249.19;;;12.63;66.58
43488;BME280;29078;41.932;25.554;2023-04-27T04:11:26;99240.56;;;12.55;66.04
43488;BME280;29078;41.932;25.554;2023-04-27T04:13:51;99260.75;;;12.62;66.38
43488;BME280;29078;41.932;25.554;2023-04-27T04:16:17;99263.25;;;12.64;66.07
43488;BME280;29078;41.932;25.554;2023-04-27T04:18:42;99245.03;;;12.54;66.00
43488;BME280;29078;41.932;25.554;2023-04-27T04:21:08;99269.97;;;12.66;65.84
43488;BME280;29078;41.932;25.554;2023-04-27T04:23:35;99254.28;;;12.65;66.11
43488;BME280;29078;41.932;25.554;2023-04-27T04:26:01;99215.09;;;12.06;65.57
43488;BME280;29078;41.932;25.554;2023-04-27T04:28:27;99233.56;;;12.40;65.53
43488;BME280;29078;41.932;25.554;2023-04-27T04:30:52;99252.59;;;12.57;65.48
43488;BME280;29078;41.932;25.554;2023-04-27T04:33:17;99199.09;;;12.27;65.55
43488;BME280;29078;41.932;25.554;2023-04-27T04:35:43;99276.72;;;12.76;65.67
43488;BME280;29078;41.932;25.554;2023-04-27T04:38:09;99206.25;;;12.33;65.71
43488;BME280;29078;41.932;25.554;2023-04-27T04:40:37;99272.03;;;12.78;65.30
43488;BME280;29078;41.932;25.554;2023-04-27T04:43:03;99292.03;;;12.80;65.49
43488;BME280;29078;41.932;25.554;2023-04-27T04:45:28;99200.53;;;12.30;65.39
43488;BME280;29078;41.932;25.554;2023-04-27T04:47:54;99291.00;;;12.81;65.33
43488;BME280;29078;41.932;25.554;2023-04-27T04:50:20;99298.75;;;12.76;65.23
43488;BME280;29078;41.932;25.554;2023-04-27T04:52:46;99235.19;;;12.35;65.52
43488;BME280;29078;41.932;25.554;2023-04-27T04:55:11;99229.66;;;12.30;65.24
43488;BME280;29078;41.932;25.554;2023-04-27T04:57:37;99297.72;;;12.77;65.40
43488;BME280;29078;41.932;25.554;2023-04-27T05:00:03;99287.44;;;12.61;65.38
43488;BME280;29078;41.932;25.554;2023-04-27T05:02:36;99271.72;;;12.53;65.33
43488;BME280;29078;41.932;25.554;2023-04-27T05:05:01;99257.84;;;12.44;65.09
43488;BME280;29078;41.932;25.554;2023-04-27T05:07:27;99317.91;;;12.78;65.20
43488;BME280;29078;41.932;25.554;2023-04-27T05:09:53;99276.19;;;12.52;65.40
43488;BME280;29078;41.932;25.554;2023-04-27T05:12:18;99275.19;;;12.53;65.35
43488;BME280;29078;41.932;25.554;2023-04-27T05:14:44;99335.88;;;12.89;65.34
43488;BME280;29078;41.932;25.554;2023-04-27T05:17:09;99285.00;;;12.59;65.35
43488;BME280;29078;41.932;25.554;2023-04-27T05:19:35;99326.13;;;12.96;65.43
43488;BME280;29078;41.932;25.554;2023-04-27T05:22:00;99312.22;;;12.88;65.00
43488;BME280;29078;41.932;25.554;2023-04-27T05:24:26;99277.53;;;12.69;65.02
43488;BME280;29078;41.932;25.554;2023-04-27T05:26:51;99254.81;;;12.54;64.86
43488;BME280;29078;41.932;25.554;2023-04-27T05:29:16;99274.44;;;12.66;64.95
43488;BME280;29078;41.932;25.554;2023-04-27T05:31:42;99280.13;;;12.63;64.14
43488;BME280;29078;41.932;25.554;2023-04-27T05:34:07;99287.75;;;12.79;63.80
43488;BME280;29078;41.932;25.554;2023-04-27T05:36:34;99341.03;;;13.04;62.89
43488;BME280;29078;41.932;25.554;2023-04-27T05:39:00;99301.00;;;12.79;62.59
43488;BME280;29078;41.932;25.554;2023-04-27T05:41:26;99342.03;;;13.03;62.39
43488;BME280;29078;41.932;25.554;2023-04-27T05:43:51;99317.13;;;12.91;62.61
43488;BME280;29078;41.932;25.554;2023-04-27T05:46:17;99314.09;;;12.94;62.23
43488;BME280;29078;41.932;25.554;2023-04-27T05:48:43;99320.44;;;12.99;61.95
43488;BME280;29078;41.932;25.554;2023-04-27T05:51:08;99254.28;;;12.65;61.80
43488;BME280;29078;41.932;25.554;2023-04-27T05:53:34;99243.28;;;12.68;61.56
43488;BME280;29078;41.932;25.554;2023-04-27T05:56:00;99284.94;;;12.94;60.97
43488;BME280;29078;41.932;25.554;2023-04-27T05:58:26;99343.78;;;13.30;61.34
43488;BME280;29078;41.932;25.554;2023-04-27T06:00:54;99343.44;;;13.40;61.24
43488;BME280;29078;41.932;25.554;2023-04-27T06:03:20;99278.00;;;12.93;60.78
43488;BME280;29078;41.932;25.554;2023-04-27T06:05:45;99281.31;;;13.08;60.30
43488;BME280;29078;41.932;25.554;2023-04-27T06:08:11;99346.31;;;13.52;60.46
43488;BME280;29078;41.932;25.554;2023-04-27T06:10:37;99345.91;;;13.48;60.28
43488;BME280;29078;41.932;25.554;2023-04-27T06:13:03;99276.81;;;13.02;60.74
43488;BME280;29078;41.932;25.554;2023-04-27T06:15:28;99285.19;;;13.05;60.85
43488;BME280;29078;41.932;25.554;2023-04-27T06:17:54;99339.56;;;13.49;60.45
43488;BME280;29078;41.932;25.554;2023-04-27T06:20:19;99263.34;;;12.97;60.07
43488;BME280;29078;41.932;25.554;2023-04-27T06:22:45;99277.81;;;12.94;60.40
43488;BME280;29078;41.932;25.554;2023-04-27T06:25:11;99347.72;;;13.48;60.10
43488;BME280;29078;41.932;25.554;2023-04-27T06:27:36;99302.16;;;13.18;60.32
43488;BME280;29078;41.932;25.554;2023-04-27T06:30:02;99335.88;;;13.44;60.10
43488;BME280;29078;41.932;25.554;2023-04-27T06:32:27;99267.00;;;12.96;60.10
43488;BME280;29078;41.932;25.554;2023-04-27T06:34:53;99299.91;;;13.21;60.08
43488;BME280;29078;41.932;25.554;2023-04-27T06:37:18;99242.31;;;12.82;60.03
43488;BME280;29078;41.932;25.554;2023-04-27T06:39:44;99309.91;;;13.19;59.69
43488;BME280;29078;41.932;25.554;2023-04-27T06:42:09;99324.25;;;13.38;59.82
43488;BME280;29078;41.932;25.554;2023-04-27T06:44:35;99317.50;;;13.35;59.70
43488;BME280;29078;41.932;25.554;2023-04-27T06:47:01;99264.16;;;13.04;59.15
43488;BME280;29078;41.932;25.554;2023-04-27T06:49:26;99358.16;;;13.62;59.32
43488;BME280;29078;41.932;25.554;2023-04-27T06:51:52;99300.75;;;13.35;59.09
43488;BME280;29078;41.932;25.554;2023-04-27T06:54:17;99357.97;;;13.77;58.48
43488;BME280;29078;41.932;25.554;2023-04-27T06:56:42;99370.03;;;13.86;58.17
43488;BME280;29078;41.932;25.554;2023-04-27T06:59:09;99384.94;;;14.07;58.03
43488;BME280;29078;41.932;25.554;2023-04-27T07:01:34;99374.94;;;14.16;57.99
43488;BME280;29078;41.932;25.554;2023-04-27T07:04:00;99354.09;;;13.99;57.67
43488;BME280;29078;41.932;25.554;2023-04-27T07:06:25;99298.56;;;13.65;57.92
43488;BME280;29078;41.932;25.554;2023-04-27T07:08:51;99344.28;;;13.93;57.77
43488;BME280;29078;41.932;25.554;2023-04-27T07:11:16;99352.06;;;14.08;57.41
43488;BME280;29078;41.932;25.554;2023-04-27T07:13:42;99274.50;;;13.60;57.07
43488;BME280;29078;41.932;25.554;2023-04-27T07:16:07;99294.50;;;13.69;57.10
43488;BME280;29078;41.932;25.554;2023-04-27T07:18:33;99391.28;;;14.26;56.97
43488;BME280;29078;41.932;25.554;2023-04-27T07:20:58;99310.41;;;13.69;56.42
43488;BME280;29078;41.932;25.554;2023-04-27T07:23:24;99322.44;;;13.85;56.32
43488;BME280;29078;41.932;25.554;2023-04-27T07:25:49;99288.97;;;13.57;55.98
43488;BME280;29078;41.932;25.554;2023-04-27T07:28:16;99323.69;;;13.76;55.77
43488;BME280;29078;41.932;25.554;2023-04-27T07:30:41;99317.56;;;13.75;56.22
43488;BME280;29078;41.932;25.554;2023-04-27T07:33:07;99325.09;;;13.85;56.35
43488;BME280;29078;41.932;25.554;2023-04-27T07:35:34;99394.75;;;14.33;56.13
43488;BME280;29078;41.932;25.554;2023-04-27T07:38:00;99373.31;;;14.21;55.56
43488;BME280;29078;41.932;25.554;2023-04-27T07:40:29;99381.66;;;14.12;55.72
43488;BME280;29078;41.932;25.554;2023-04-27T07:42:55;99342.25;;;13.95;55.70
43488;BME280;29078;41.932;25.554;2023-04-27T07:45:20;99401.28;;;14.30;55.37
43488;BME280;29078;41.932;25.554;2023-04-27T07:47:47;99325.72;;;13.80;54.83
43488;BME280;29078;41.932;25.554;2023-04-27T07:50:12;99324.91;;;13.80;54.55
43488;BME280;29078;41.932;25.554;2023-04-27T07:52:42;99400.47;;;14.30;54.78
43488;BME280;29078;41.932;25.554;2023-04-27T07:55:07;99391.06;;;14.08;54.79
43488;BME280;29078;41.932;25.554;2023-04-27T07:57:34;99364.91;;;14.05;54.40
43488;BME280;29078;41.932;25.554;2023-04-27T08:00:00;99321.63;;;13.84;54.55
43488;BME280;29078;41.932;25.554;2023-04-27T08:02:26;99407.41;;;14.38;54.44
43488;BME280;29078;41.932;25.554;2023-04-27T08:04:55;99322.03;;;13.81;53.96
43488;BME280;29078;41.932;25.554;2023-04-27T08:07:21;99352.06;;;14.02;53.54
43488;BME280;29078;41.932;25.554;2023-04-27T08:09:49;99421.50;;;14.31;52.95
43488;BME280;29078;41.932;25.554;2023-04-27T08:12:16;99395.78;;;14.19;53.39
43488;BME280;29078;41.932;25.554;2023-04-27T08:14:41;99325.50;;;13.68;53.18
43488;BME280;29078;41.932;25.554;2023-04-27T08:17:07;99327.34;;;13.68;53.49
43488;BME280;29078;41.932;25.554;2023-04-27T08:19:32;99388.59;;;14.06;53.49
43488;BME280;29078;41.932;25.554;2023-04-27T08:21:59;99364.72;;;13.86;53.54
43488;BME280;29078;41.932;25.554;2023-04-27T08:24:25;99367.56;;;13.91;53.43
43488;BME280;29078;41.932;25.554;2023-04-27T08:26:50;99327.69;;;13.32;53.65
43488;BME280;29078;41.932;25.554;2023-04-27T08:29:15;99351.03;;;13.70;53.55
43488;BME280;29078;41.932;25.554;2023-04-27T08:31:41;99349.38;;;13.68;53.45
43488;BME280;29078;41.932;25.554;2023-04-27T08:34:06;99381.44;;;13.80;53.06
43488;BME280;29078;41.932;25.554;2023-04-27T08:36:32;99349.38;;;13.55;53.10
43488;BME280;29078;41.932;25.554;2023-04-27T08:38:58;99408.22;;;13.98;53.07
43488;BME280;29078;41.932;25.554;2023-04-27T08:41:23;99388.00;;;13.91;53.23
43488;BME280;29078;41.932;25.554;2023-04-27T08:43:50;99410.91;;;14.18;52.93
43488;BME280;29078;41.932;25.554;2023-04-27T08:46:23;99392.91;;;14.14;52.78
43488;BME280;29078;41.932;25.554;2023-04-27T08:48:53;99400.28;;;14.18;52.53
43488;BME280;29078;41.932;25.554;2023-04-27T08:51:19;99413.13;;;14.28;52.51
43488;BME280;29078;41.932;25.554;2023-04-27T08:53:53;99413.34;;;14.40;52.15
43488;BME280;29078;41.932;25.554;2023-04-27T08:56:21;99404.78;;;14.44;51.85
43488;BME280;29078;41.932;25.554;2023-04-27T08:58:53;99408.66;;;14.55;51.23
43488;BME280;29078;41.932;25.554;2023-04-27T09:01:20;99362.47;;;14.49;51.77
43488;BME280;29078;41.932;25.554;2023-04-27T09:03:46;99293.25;;;14.18;51.34
43488;BME280;29078;41.932;25.554;2023-04-27T09:06:13;99331.38;;;14.56;50.69
43488;BME280;29078;41.932;25.554;2023-04-27T09:08:42;99395.22;;;15.14;50.57
43488;BME280;29078;41.932;25.554;2023-04-27T09:11:07;99376.97;;;15.24;50.30
43488;BME280;29078;41.932;25.554;2023-04-27T09:13:37;99397.31;;;15.44;49.83
43488;BME280;29078;41.932;25.554;2023-04-27T09:16:04;99351.13;;;15.32;49.96
43488;BME280;29078;41.932;25.554;2023-04-27T09:18:30;99313.47;;;15.35;49.22
43488;BME280;29078;41.932;25.554;2023-04-27T09:20:59;99384.81;;;15.89;48.95
43488;BME280;29078;41.932;25.554;2023-04-27T09:23:32;99387.31;;;16.09;48.12
43488;BME280;29078;41.932;25.554;2023-04-27T09:25:59;99286.34;;;15.51;47.81
43488;BME280;29078;41.932;25.554;2023-04-27T09:28:26;99376.75;;;16.20;47.94
43488;BME280;29078;41.932;25.554;2023-04-27T09:30:56;99350.13;;;16.20;47.71
43488;BME280;29078;41.932;25.554;2023-04-27T09:33:29;99285.63;;;15.94;47.01
43488;BME280;29078;41.932;25.554;2023-04-27T09:35:58;99353.75;;;16.51;46.42
43488;BME280;29078;41.932;25.554;2023-04-27T09:38:24;99329.03;;;16.19;46.38
43488;BME280;29078;41.932;25.554;2023-04-27T09:40:51;99371.56;;;16.75;46.43
43488;BME280;29078;41.932;25.554;2023-04-27T09:43:17;99324.22;;;16.52;45.70
43488;BME280;29078;41.932;25.554;2023-04-27T09:45:43;99322.66;;;16.63;45.85
43488;BME280;29078;41.932;25.554;2023-04-27T09:48:11;99372.19;;;17.07;45.19
43488;BME280;29078;41.932;25.554;2023-04-27T09:50:42;99373.09;;;17.20;44.99
43488;BME280;29078;41.932;25.554;2023-04-27T09:53:10;99365.81;;;17.57;44.57
43488;BME280;29078;41.932;25.554;2023-04-27T09:55:43;99363.16;;;17.87;43.03
43488;BME280;29078;41.932;25.554;2023-04-27T10:01:29;99374.97;;;17.79;42.86
43488;BME280;29078;41.932;25.554;2023-04-27T10:07:02;99355.41;;;18.20;41.25
43488;BME280;29078;41.932;25.554;2023-04-27T10:09:48;99304.53;;;17.92;42.49
43488;BME280;29078;41.932;25.554;2023-04-27T10:12:19;99367.72;;;18.45;42.53
43488;BME280;29078;41.932;25.554;2023-04-27T10:14:56;99348.69;;;18.64;42.06
43488;BME280;29078;41.932;25.554;2023-04-27T10:17:29;99362.59;;;18.90;42.23
43488;BME280;29078;41.932;25.554;2023-04-27T10:19:59;99367.06;;;19.13;40.83
43488;BME280;29078;41.932;25.554;2023-04-27T10:22:42;99369.22;;;19.39;41.46
43488;BME280;29078;41.932;25.554;2023-04-27T10:25:26;99340.66;;;19.45;40.40
43488;BME280;29078;41.932;25.554;2023-04-27T10:28:02;99303.03;;;19.23;41.03
43488;BME280;29078;41.932;25.554;2023-04-27T10:30:33;99343.34;;;19.45;41.12
43488;BME280;29078;41.932;25.554;2023-04-27T10:33:04;99356.72;;;19.56;41.17
43488;BME280;29078;41.932;25.554;2023-04-27T10:35:40;99316.13;;;19.08;41.07
43488;BME280;29078;41.932;25.554;2023-04-27T10:38:16;99315.06;;;18.57;41.41
43488;BME280;29078;41.932;25.554;2023-04-27T10:40:44;99369.38;;;19.21;41.34
43488;BME280;29078;41.932;25.554;2023-04-27T10:43:14;99368.56;;;19.20;41.11
43488;BME280;29078;41.932;25.554;2023-04-27T10:45:41;99362.50;;;19.25;40.90
43488;BME280;29078;41.932;25.554;2023-04-27T10:48:08;99325.69;;;19.03;40.92
43488;BME280;29078;41.932;25.554;2023-04-27T10:50:33;99308.44;;;19.11;40.50
43488;BME280;29078;41.932;25.554;2023-04-27T10:53:05;99312.41;;;19.65;39.66
43488;BME280;29078;41.932;25.554;2023-04-27T10:55:32;99365.13;;;20.44;39.36
43488;BME280;29078;41.932;25.554;2023-04-27T10:57:58;99285.19;;;20.24;38.50
43488;BME280;29078;41.932;25.554;2023-04-27T11:00:26;99344.31;;;20.51;38.39
43488;BME280;29078;41.932;25.554;2023-04-27T11:02:53;99324.25;;;20.03;39.01
43488;BME280;29078;41.932;25.554;2023-04-27T11:05:24;99355.94;;;19.89;39.46
43488;BME280;29078;41.932;25.554;2023-04-27T11:08:03;99359.38;;;19.56;40.33
43488;BME280;29078;41.932;25.554;2023-04-27T11:10:29;99337.63;;;19.13;40.51
43488;BME280;29078;41.932;25.554;2023-04-27T11:12:55;99310.66;;;18.74;40.74
43488;BME280;29078;41.932;25.554;2023-04-27T11:15:21;99299.97;;;18.74;40.64
43488;BME280;29078;41.932;25.554;2023-04-27T11:17:46;99312.59;;;18.90;40.62
43488;BME280;29078;41.932;25.554;2023-04-27T11:20:12;99337.09;;;19.67;40.12
43488;BME280;29078;41.932;25.554;2023-04-27T11:22:44;99355.63;;;20.19;39.23
43488;BME280;29078;41.932;25.554;2023-04-27T11:25:11;99314.56;;;20.36;38.74
43488;BME280;29078;41.932;25.554;2023-04-27T11:27:38;99345.22;;;21.00;38.45
43488;BME280;29078;41.932;25.554;2023-04-27T11:30:04;99298.78;;;21.00;37.77
43488;BME280;29078;41.932;25.554;2023-04-27T11:32:29;99330.19;;;21.48;37.35
43488;BME280;29078;41.932;25.554;2023-04-27T11:34:55;99336.03;;;21.67;36.65
43488;BME280;29078;41.932;25.554;2023-04-27T11:37:22;99366.88;;;21.91;36.41
43488;BME280;29078;41.932;25.554;2023-04-27T11:39:48;99298.41;;;21.40;36.23
43488;BME280;29078;41.932;25.554;2023-04-27T11:42:25;99363.59;;;22.16;35.68
43488;BME280;29078;41.932;25.554;2023-04-27T11:47:22;99307.63;;;21.76;35.75
43488;BME280;29078;41.932;25.554;2023-04-27T11:49:48;99310.06;;;21.50;35.53
43488;BME280;29078;41.932;25.554;2023-04-27T11:52:14;99328.38;;;21.27;36.36
43488;BME280;29078;41.932;25.554;2023-04-27T11:55:00;99291.84;;;20.60;36.88
43488;BME280;29078;41.932;25.554;2023-04-27T11:57:28;99356.50;;;20.80;37.33
43488;BME280;29078;41.932;25.554;2023-04-27T11:59:56;99364.06;;;20.45;37.91
43488;BME280;29078;41.932;25.554;2023-04-27T12:02:24;99329.78;;;19.96;38.74
43488;BME280;29078;41.932;25.554;2023-04-27T12:04:51;99336.53;;;19.99;38.61
43488;BME280;29078;41.932;25.554;2023-04-27T12:07:17;99274.78;;;19.44;38.89
43488;BME280;29078;41.932;25.554;2023-04-27T12:09:42;99363.06;;;19.84;39.15
43488;BME280;29078;41.932;25.554;2023-04-27T12:12:09;99331.34;;;19.47;39.48
43488;BME280;29078;41.932;25.554;2023-04-27T12:14:35;99368.09;;;19.63;39.53
43488;BME280;29078;41.932;25.554;2023-04-27T12:17:01;99364.16;;;19.54;39.66
43488;BME280;29078;41.932;25.554;2023-04-27T12:19:27;99297.41;;;19.08;39.83
43488;BME280;29078;41.932;25.554;2023-04-27T12:21:52;99320.28;;;18.87;40.35
43488;BME280;29078;41.932;25.554;2023-04-27T12:24:19;99378.34;;;19.15;40.70
43488;BME280;29078;41.932;25.554;2023-04-27T12:26:44;99334.59;;;18.81;40.82
43488;BME280;29078;41.932;25.554;2023-04-27T12:29:11;99311.34;;;18.46;41.17
43488;BME280;29078;41.932;25.554;2023-04-27T12:31:36;99373.09;;;18.80;41.30
43488;BME280;29078;41.932;25.554;2023-04-27T12:34:02;99374.03;;;18.73;41.33
43488;BME280;29078;41.932;25.554;2023-04-27T12:36:27;99319.84;;;18.43;41.49
43488;BME280;29078;41.932;25.554;2023-04-27T12:38:57;99370.31;;;18.75;41.31
43488;BME280;29078;41.932;25.554;2023-04-27T12:41:23;99334.00;;;18.55;40.96
43488;BME280;29078;41.932;25.554;2023-04-27T12:43:49;99305.31;;;18.39;41.37
43488;BME280;29078;41.932;25.554;2023-04-27T12:46:14;99364.03;;;18.81;41.29
43488;BME280;29078;41.932;25.554;2023-04-27T12:48:40;99345.09;;;18.70;41.18
43488;BME280;29078;41.932;25.554;2023-04-27T12:51:06;99365.19;;;18.85;41.14
43488;BME280;29078;41.932;25.554;2023-04-27T12:53:31;99356.94;;;18.75;41.25
43488;BME280;29078;41.932;25.554;2023-04-27T12:55:56;99361.13;;;18.70;41.61